createdAt,value
2022-11-13T00:00:27.587Z,6.57
2022-11-13T00:01:09.999Z,6.59
2022-11-13T00:01:41.566Z,6.63
2022-11-13T00:02:13.166Z,6.62
2022-11-13T00:02:44.734Z,6.59
2022-11-13T00:03:16.299Z,6.66
2022-11-13T00:03:48.051Z,6.83
2022-11-13T00:04:19.665Z,6.84
2022-11-13T00:04:51.180Z,6.86
2022-11-13T00:05:22.775Z,6.81
2022-11-13T00:06:01.594Z,6.81
2022-11-13T00:06:33.134Z,6.70
2022-11-13T00:07:04.706Z,6.60
2022-11-13T00:07:36.290Z,6.69
2022-11-13T00:08:07.831Z,6.60
2022-11-13T00:08:39.956Z,6.53
2022-11-13T00:09:12.294Z,6.50
2022-11-13T00:09:43.800Z,6.45
2022-11-13T00:10:15.869Z,6.47
2022-11-13T00:10:47.417Z,6.57
2022-11-13T00:11:19.811Z,6.63
2022-11-13T00:11:51.341Z,6.38
2022-11-13T00:12:22.851Z,6.28
2022-11-13T00:12:54.488Z,6.30
2022-11-13T00:13:30.156Z,6.32
2022-11-13T00:14:02.083Z,6.26
2022-11-13T00:14:33.589Z,6.17
2022-11-13T00:15:05.602Z,6.17
2022-11-13T00:15:37.157Z,6.09
2022-11-13T00:16:12.520Z,6.22
2022-11-13T00:16:44.052Z,6.19
2022-11-13T00:17:15.562Z,6.22
2022-11-13T00:17:47.122Z,6.26
2022-11-13T00:18:18.634Z,6.19
2022-11-13T00:18:50.150Z,6.32
2022-11-13T00:19:21.687Z,6.35
2022-11-13T00:19:53.237Z,6.04
2022-11-13T00:20:24.772Z,6.07
2022-11-13T00:20:57.734Z,6.11
2022-11-13T00:21:29.376Z,6.17
2022-11-13T00:22:00.901Z,6.15
2022-11-13T00:22:32.417Z,6.09
2022-11-13T00:23:04.149Z,6.02
2022-11-13T00:23:36.966Z,6.01
2022-11-13T00:24:08.557Z,5.98
2022-11-13T00:24:40.093Z,6.04
2022-11-13T00:25:11.769Z,5.87
2022-11-13T00:25:43.285Z,5.84
2022-11-13T00:26:20.432Z,5.83
2022-11-13T00:26:51.978Z,5.90
2022-11-13T00:27:23.648Z,5.86
2022-11-13T00:27:55.176Z,5.80
2022-11-13T00:28:27.008Z,5.78
2022-11-13T00:29:01.268Z,5.80
2022-11-13T00:29:33.133Z,5.81
2022-11-13T00:30:05.964Z,5.83
2022-11-13T00:30:37.519Z,5.83
2022-11-13T00:31:10.280Z,5.88
2022-11-13T00:31:41.997Z,5.87
2022-11-13T00:32:13.510Z,5.91
2022-11-13T00:32:45.067Z,5.90
2022-11-13T00:33:38.267Z,5.87
2022-11-13T00:34:33.035Z,5.98
2022-11-13T00:35:01.681Z,5.90
2022-11-13T00:35:33.894Z,5.91
2022-11-13T00:36:08.516Z,5.91
2022-11-13T00:36:40.097Z,5.97
2022-11-13T00:37:11.625Z,5.83
2022-11-13T00:37:43.125Z,5.77
2022-11-13T00:38:14.689Z,5.83
2022-11-13T00:38:46.204Z,5.84
2022-11-13T00:39:17.727Z,5.80
2022-11-13T00:39:49.232Z,5.70
2022-11-13T00:40:20.820Z,5.75
2022-11-13T00:40:52.346Z,5.78
2022-11-13T00:41:24.645Z,5.59
2022-11-13T00:41:56.168Z,5.66
2022-11-13T00:42:27.681Z,5.59
2022-11-13T00:42:59.205Z,5.57
2022-11-13T00:43:30.801Z,5.57
2022-11-13T00:44:04.033Z,5.61
2022-11-13T00:44:35.698Z,5.63
2022-11-13T00:45:09.099Z,5.29
2022-11-13T00:45:41.176Z,5.29
2022-11-13T00:46:12.706Z,5.36
2022-11-13T00:46:44.240Z,5.36
2022-11-13T00:47:15.784Z,5.43
2022-11-13T00:47:47.295Z,5.39
2022-11-13T00:48:18.843Z,5.32
2022-11-13T00:48:50.365Z,5.39
2022-11-13T00:49:21.895Z,5.29
2022-11-13T00:49:53.405Z,5.16
2022-11-13T00:50:24.945Z,5.19
2022-11-13T00:50:56.581Z,5.13
2022-11-13T00:51:28.117Z,5.18
2022-11-13T00:52:00.304Z,5.05
2022-11-13T00:52:31.834Z,5.01
2022-11-13T00:53:03.370Z,5.04
2022-11-13T00:53:35.090Z,5.09
2022-11-13T00:54:06.674Z,5.07
2022-11-13T00:54:38.177Z,4.96
2022-11-13T00:55:09.698Z,4.91
2022-11-13T00:55:43.897Z,4.92
2022-11-13T00:56:15.482Z,4.93
2022-11-13T00:56:47.040Z,4.96
2022-11-13T00:57:19.199Z,5.02
2022-11-13T00:57:50.704Z,5.04
2022-11-13T00:58:22.225Z,4.99
2022-11-13T00:58:53.744Z,5.05
2022-11-13T00:59:25.287Z,5.11
2022-11-13T00:59:56.806Z,5.18
2022-11-13T01:00:28.341Z,5.18
2022-11-13T01:01:12.194Z,5.08
2022-11-13T01:01:43.762Z,5.05
2022-11-13T01:02:15.382Z,5.05
2022-11-13T01:02:46.881Z,5.05
2022-11-13T01:03:18.540Z,4.98
2022-11-13T01:03:50.082Z,5.01
2022-11-13T01:04:22.066Z,5.02
2022-11-13T01:04:53.614Z,4.98
2022-11-13T01:05:25.809Z,5.02
2022-11-13T01:05:57.333Z,5.04
2022-11-13T01:06:29.312Z,4.99
2022-11-13T01:07:01.061Z,4.99
2022-11-13T01:07:32.687Z,5.07
2022-11-13T01:08:05.329Z,5.02
2022-11-13T01:08:36.887Z,4.91
2022-11-13T01:09:09.209Z,4.88
2022-11-13T01:09:40.753Z,4.79
2022-11-13T01:10:13.398Z,4.82
2022-11-13T01:10:52.092Z,4.77
2022-11-13T01:11:27.758Z,4.79
2022-11-13T01:11:59.744Z,4.79
2022-11-13T01:12:32.073Z,4.78
2022-11-13T01:13:03.627Z,4.87
2022-11-13T01:13:35.153Z,4.85
2022-11-13T01:14:06.950Z,4.85
2022-11-13T01:14:38.471Z,4.82
2022-11-13T01:15:10.081Z,4.89
2022-11-13T01:15:43.697Z,4.93
2022-11-13T01:16:16.809Z,4.89
2022-11-13T01:16:48.336Z,4.87
2022-11-13T01:17:19.853Z,4.85
2022-11-13T01:17:51.795Z,4.81
2022-11-13T01:18:23.325Z,4.88
2022-11-13T01:18:55.859Z,4.81
2022-11-13T01:19:27.379Z,4.81
2022-11-13T01:19:58.909Z,4.74
2022-11-13T01:20:30.566Z,4.71
2022-11-13T01:21:23.960Z,4.71
2022-11-13T01:21:55.508Z,4.70
2022-11-13T01:22:27.049Z,4.75
2022-11-13T01:22:58.793Z,4.71
2022-11-13T01:23:30.310Z,4.68
2022-11-13T01:24:01.911Z,4.58
2022-11-13T01:24:33.414Z,4.53
2022-11-13T01:25:05.441Z,4.44
2022-11-13T01:25:37.108Z,4.47
2022-11-13T01:26:24.398Z,4.47
2022-11-13T01:26:55.913Z,4.40
2022-11-13T01:27:27.425Z,4.44
2022-11-13T01:27:58.962Z,4.50
2022-11-13T01:28:30.714Z,4.57
2022-11-13T01:29:02.367Z,4.60
2022-11-13T01:29:33.998Z,4.60
2022-11-13T01:30:06.657Z,4.61
2022-11-13T01:30:39.218Z,4.65
2022-11-13T01:31:15.255Z,4.68
2022-11-13T01:31:46.794Z,4.67
2022-11-13T01:32:18.736Z,4.56
2022-11-13T01:32:50.450Z,4.44
2022-11-13T01:33:21.990Z,4.43
2022-11-13T01:33:53.679Z,4.40
2022-11-13T01:34:25.259Z,4.49
2022-11-13T01:34:56.790Z,4.57
2022-11-13T01:35:28.293Z,4.60
2022-11-13T01:36:04.925Z,4.57
2022-11-13T01:36:36.488Z,4.61
2022-11-13T01:37:08.102Z,4.70
2022-11-13T01:37:39.613Z,4.70
2022-11-13T01:38:11.116Z,4.74
2022-11-13T01:38:42.684Z,4.70
2022-11-13T01:39:14.331Z,4.60
2022-11-13T01:39:45.845Z,4.58
2022-11-13T01:40:17.517Z,4.51
2022-11-13T01:40:49.033Z,4.51
2022-11-13T01:41:29.584Z,4.40
2022-11-13T01:42:01.373Z,4.36
2022-11-13T01:42:33.982Z,4.43
2022-11-13T01:43:31.525Z,4.37
2022-11-13T01:44:03.146Z,4.32
2022-11-13T01:44:51.429Z,4.33
2022-11-13T01:46:00.145Z,4.24
2022-11-13T01:46:39.949Z,4.40
2022-11-13T01:47:11.537Z,4.43
2022-11-13T01:47:43.080Z,4.39
2022-11-13T01:48:15.276Z,4.36
2022-11-13T01:48:56.826Z,4.39
2022-11-13T01:49:28.335Z,4.36
2022-11-13T01:50:02.207Z,4.39
2022-11-13T01:50:34.129Z,4.41
2022-11-13T01:51:16.533Z,4.43
2022-11-13T01:51:53.036Z,4.39
2022-11-13T01:52:38.916Z,4.43
2022-11-13T01:53:10.816Z,4.26
2022-11-13T01:53:45.519Z,4.28
2022-11-13T01:54:21.814Z,4.36
2022-11-13T01:54:57.177Z,4.33
2022-11-13T01:55:29.433Z,4.10
2022-11-13T01:56:01.179Z,4.23
2022-11-13T01:56:32.769Z,4.26
2022-11-13T01:57:05.277Z,4.24
2022-11-13T01:57:36.969Z,4.29
2022-11-13T01:58:10.269Z,4.16
2022-11-13T01:58:45.793Z,4.07
2022-11-13T01:59:24.380Z,3.99
2022-11-13T02:00:00.579Z,3.91
2022-11-13T02:01:12.313Z,3.98
2022-11-13T02:01:43.863Z,4.05
2022-11-13T02:02:15.445Z,4.07
2022-11-13T02:02:46.998Z,4.06
2022-11-13T02:03:18.626Z,4.13
2022-11-13T02:03:50.229Z,4.19
2022-11-13T02:04:22.430Z,4.16
2022-11-13T02:04:54.112Z,4.17
2022-11-13T02:05:25.651Z,4.07
2022-11-13T02:05:57.260Z,4.07
2022-11-13T02:06:34.449Z,3.77
2022-11-13T02:07:08.732Z,3.88
2022-11-13T02:07:40.289Z,3.93
2022-11-13T02:08:12.115Z,3.93
2022-11-13T02:08:44.273Z,3.98
2022-11-13T02:09:18.375Z,3.88
2022-11-13T02:09:52.323Z,3.95
2022-11-13T02:10:23.913Z,3.95
2022-11-13T02:10:56.103Z,3.99
2022-11-13T02:11:27.698Z,4.00
2022-11-13T02:11:59.606Z,3.92
2022-11-13T02:12:34.109Z,3.93
2022-11-13T02:13:06.194Z,3.99
2022-11-13T02:13:38.681Z,4.03
2022-11-13T02:14:13.225Z,4.09
2022-11-13T02:14:50.540Z,4.09
2022-11-13T02:15:24.641Z,4.12
2022-11-13T02:15:57.430Z,4.20
2022-11-13T02:16:32.227Z,4.21
2022-11-13T02:17:07.759Z,4.21
2022-11-13T02:17:47.093Z,4.29
2022-11-13T02:18:20.577Z,4.33
2022-11-13T02:18:52.577Z,4.30
2022-11-13T02:19:36.008Z,4.37
2022-11-13T02:20:08.330Z,4.30
2022-11-13T02:21:04.154Z,4.33
2022-11-13T02:21:44.449Z,4.23
2022-11-13T02:22:18.750Z,4.20
2022-11-13T02:23:24.369Z,4.14
2022-11-13T02:24:19.382Z,4.23
2022-11-13T02:24:54.572Z,4.24
2022-11-13T02:25:29.686Z,4.23
2022-11-13T02:26:01.911Z,4.24
2022-11-13T02:26:34.055Z,4.19
2022-11-13T02:27:10.822Z,4.14
2022-11-13T02:27:45.998Z,4.13
2022-11-13T02:28:17.549Z,4.13
2022-11-13T02:28:49.136Z,4.12
2022-11-13T02:29:20.667Z,4.10
2022-11-13T02:29:52.187Z,4.13
2022-11-13T02:30:27.794Z,4.12
2022-11-13T02:31:07.616Z,4.10
2022-11-13T02:31:39.208Z,4.09
2022-11-13T02:32:10.774Z,4.07
2022-11-13T02:32:44.339Z,4.05
2022-11-13T02:33:30.049Z,4.03
2022-11-13T02:34:02.750Z,4.10
2022-11-13T02:34:34.301Z,3.98
2022-11-13T02:35:05.991Z,4.05
2022-11-13T02:35:38.419Z,4.09
2022-11-13T02:36:11.329Z,4.10
2022-11-13T02:36:42.878Z,4.12
2022-11-13T02:37:14.461Z,4.12
2022-11-13T02:37:46.074Z,4.10
2022-11-13T02:38:17.733Z,4.14
2022-11-13T02:38:52.030Z,4.13
2022-11-13T02:39:23.646Z,4.12
2022-11-13T02:39:55.172Z,4.09
2022-11-13T02:40:27.442Z,4.10
2022-11-13T02:40:59.122Z,4.12
2022-11-13T02:41:30.675Z,4.14
2022-11-13T02:42:02.198Z,4.16
2022-11-13T02:42:33.798Z,4.17
2022-11-13T02:43:05.440Z,4.20
2022-11-13T02:43:36.987Z,4.23
2022-11-13T02:44:08.917Z,4.23
2022-11-13T02:44:40.441Z,4.28
2022-11-13T02:45:12.059Z,4.28
2022-11-13T02:45:43.740Z,4.24
2022-11-13T02:46:15.262Z,4.30
2022-11-13T02:46:46.796Z,4.23
2022-11-13T02:47:18.335Z,4.24
2022-11-13T02:47:50.017Z,4.21
2022-11-13T02:48:21.598Z,4.29
2022-11-13T02:48:53.110Z,4.28
2022-11-13T02:49:24.668Z,4.30
2022-11-13T02:49:56.196Z,4.26
2022-11-13T02:50:28.023Z,4.32
2022-11-13T02:51:00.743Z,4.39
2022-11-13T02:51:32.314Z,4.30
2022-11-13T02:52:03.982Z,4.33
2022-11-13T02:52:35.937Z,4.34
2022-11-13T02:53:07.571Z,4.29
2022-11-13T02:53:39.100Z,4.28
2022-11-13T02:54:15.569Z,4.30
2022-11-13T02:54:48.359Z,4.29
2022-11-13T02:55:19.889Z,4.30
2022-11-13T02:55:51.414Z,4.28
2022-11-13T02:56:23.001Z,4.24
2022-11-13T02:56:54.528Z,4.26
2022-11-13T02:57:26.055Z,4.26
2022-11-13T02:57:57.573Z,4.24
2022-11-13T02:58:29.527Z,4.30
2022-11-13T02:59:01.293Z,4.24
2022-11-13T02:59:32.928Z,4.21
2022-11-13T03:00:07.975Z,4.23
2022-11-13T03:00:43.912Z,4.39
2022-11-13T03:01:15.537Z,4.34
2022-11-13T03:01:48.084Z,4.23
2022-11-13T03:02:19.641Z,4.09
2022-11-13T03:02:51.267Z,4.17
2022-11-13T03:03:48.119Z,4.17
2022-11-13T03:04:14.377Z,4.29
2022-11-13T03:05:10.929Z,4.23
2022-11-13T03:05:37.910Z,4.14
2022-11-13T03:06:09.472Z,4.10
2022-11-13T03:06:41.084Z,4.16
2022-11-13T03:07:13.431Z,4.16
2022-11-13T03:07:45.012Z,4.20
2022-11-13T03:08:17.065Z,4.19
2022-11-13T03:08:48.604Z,4.20
2022-11-13T03:09:20.170Z,4.14
2022-11-13T03:09:51.744Z,4.19
2022-11-13T03:10:23.350Z,4.24
2022-11-13T03:10:55.438Z,4.20
2022-11-13T03:11:27.011Z,4.12
2022-11-13T03:11:58.615Z,4.17
2022-11-13T03:12:30.502Z,4.20
2022-11-13T03:13:02.071Z,4.23
2022-11-13T03:13:33.608Z,4.07
2022-11-13T03:14:05.358Z,4.14
2022-11-13T03:14:36.890Z,4.24
2022-11-13T03:15:09.422Z,4.17
2022-11-13T03:15:40.970Z,4.30
2022-11-13T03:16:15.098Z,4.26
2022-11-13T03:16:46.634Z,4.17
2022-11-13T03:17:18.268Z,4.20
2022-11-13T03:17:49.922Z,4.14
2022-11-13T03:18:21.459Z,4.17
2022-11-13T03:18:52.984Z,4.12
2022-11-13T03:19:24.635Z,4.06
2022-11-13T03:19:56.159Z,4.13
2022-11-13T03:20:27.698Z,4.13
2022-11-13T03:21:07.069Z,4.23
2022-11-13T03:21:38.823Z,4.23
2022-11-13T03:22:10.365Z,4.19
2022-11-13T03:22:41.905Z,4.28
2022-11-13T03:23:13.453Z,4.32
2022-11-13T03:23:45.359Z,4.28
2022-11-13T03:24:16.978Z,4.23
2022-11-13T03:24:48.499Z,4.21
2022-11-13T03:25:20.029Z,4.20
2022-11-13T03:25:51.551Z,4.20
2022-11-13T03:26:23.863Z,4.23
2022-11-13T03:26:55.422Z,4.13
2022-11-13T03:27:26.967Z,4.12
2022-11-13T03:27:58.578Z,4.16
2022-11-13T03:28:30.378Z,4.14
2022-11-13T03:29:02.178Z,4.12
2022-11-13T03:29:33.704Z,4.12
2022-11-13T03:30:05.991Z,4.05
2022-11-13T03:30:37.508Z,4.00
2022-11-13T03:31:09.139Z,4.06
2022-11-13T03:31:40.688Z,4.12
2022-11-13T03:32:12.263Z,4.02
2022-11-13T03:32:43.785Z,3.96
2022-11-13T03:33:16.037Z,4.00
2022-11-13T03:33:47.600Z,4.12
2022-11-13T03:34:19.156Z,4.02
2022-11-13T03:34:50.681Z,4.03
2022-11-13T03:35:23.710Z,4.03
2022-11-13T03:35:55.329Z,3.95
2022-11-13T03:36:26.878Z,3.99
2022-11-13T03:36:58.396Z,4.00
2022-11-13T03:37:29.918Z,3.83
2022-11-13T03:38:01.465Z,3.96
2022-11-13T03:38:33.526Z,3.93
2022-11-13T03:39:05.407Z,4.06
2022-11-13T03:39:36.940Z,4.05
2022-11-13T03:40:08.990Z,4.02
2022-11-13T03:40:40.509Z,3.95
2022-11-13T03:41:14.823Z,3.96
2022-11-13T03:41:46.363Z,3.96
2022-11-13T03:42:17.889Z,4.02
2022-11-13T03:42:49.409Z,4.09
2022-11-13T03:43:21.197Z,4.06
2022-11-13T03:43:52.717Z,4.00
2022-11-13T03:44:24.277Z,4.00
2022-11-13T03:44:55.813Z,4.09
2022-11-13T03:45:27.337Z,4.13
2022-11-13T03:45:58.933Z,4.14
2022-11-13T03:46:30.572Z,4.16
2022-11-13T03:47:02.093Z,4.20
2022-11-13T03:47:33.663Z,4.23
2022-11-13T03:48:05.404Z,4.21
2022-11-13T03:48:37.059Z,4.21
2022-11-13T03:49:08.591Z,4.09
2022-11-13T03:49:40.141Z,4.14
2022-11-13T03:50:11.754Z,4.10
2022-11-13T03:50:47.164Z,4.13
2022-11-13T03:51:18.763Z,4.12
2022-11-13T03:51:50.306Z,4.16
2022-11-13T03:52:21.856Z,4.07
2022-11-13T03:52:53.559Z,4.03
2022-11-13T03:53:25.091Z,4.02
2022-11-13T03:53:56.625Z,3.99
2022-11-13T03:54:28.162Z,4.02
2022-11-13T03:54:59.710Z,3.88
2022-11-13T03:55:31.257Z,3.77
2022-11-13T03:56:02.789Z,3.71
2022-11-13T03:56:34.316Z,3.85
2022-11-13T03:57:06.635Z,3.85
2022-11-13T03:57:38.153Z,3.88
2022-11-13T03:58:09.822Z,3.71
2022-11-13T03:58:43.722Z,3.75
2022-11-13T03:59:18.665Z,3.71
2022-11-13T03:59:50.187Z,3.74
2022-11-13T04:00:21.850Z,3.79
2022-11-13T04:00:55.462Z,3.75
2022-11-13T04:01:27.119Z,3.72
2022-11-13T04:01:58.734Z,3.67
2022-11-13T04:02:30.286Z,3.68
2022-11-13T04:03:01.819Z,3.68
2022-11-13T04:03:33.441Z,3.78
2022-11-13T04:04:05.145Z,3.79
2022-11-13T04:04:37.007Z,3.79
2022-11-13T04:05:09.439Z,3.83
2022-11-13T04:05:42.886Z,3.82
2022-11-13T04:06:14.934Z,3.78
2022-11-13T04:06:46.515Z,3.75
2022-11-13T04:07:18.112Z,3.68
2022-11-13T04:07:49.845Z,3.64
2022-11-13T04:08:21.611Z,3.65
2022-11-13T04:08:53.938Z,3.68
2022-11-13T04:09:25.562Z,3.71
2022-11-13T04:09:57.131Z,3.72
2022-11-13T04:10:28.880Z,3.72
2022-11-13T04:11:08.454Z,3.65
2022-11-13T04:11:39.998Z,3.77
2022-11-13T04:12:11.513Z,3.78
2022-11-13T04:12:43.050Z,3.71
2022-11-13T04:13:14.620Z,3.79
2022-11-13T04:13:46.150Z,3.77
2022-11-13T04:14:17.823Z,3.79
2022-11-13T04:14:49.332Z,3.82
2022-11-13T04:15:21.086Z,3.85
2022-11-13T04:15:52.607Z,3.75
2022-11-13T04:16:24.340Z,3.78
2022-11-13T04:16:55.885Z,3.79
2022-11-13T04:17:27.483Z,3.68
2022-11-13T04:17:59.097Z,3.72
2022-11-13T04:18:31.013Z,3.78
2022-11-13T04:19:02.698Z,3.78
2022-11-13T04:19:34.228Z,3.79
2022-11-13T04:20:06.510Z,3.82
2022-11-13T04:20:38.080Z,3.83
2022-11-13T04:21:09.773Z,3.78
2022-11-13T04:21:41.327Z,3.83
2022-11-13T04:22:13.034Z,3.83
2022-11-13T04:22:44.589Z,3.88
2022-11-13T04:23:17.929Z,3.86
2022-11-13T04:23:49.478Z,3.88
2022-11-13T04:24:21.001Z,3.85
2022-11-13T04:24:52.561Z,3.75
2022-11-13T04:25:25.012Z,3.79
2022-11-13T04:25:56.799Z,3.77
2022-11-13T04:26:28.834Z,3.72
2022-11-13T04:27:00.383Z,3.72
2022-11-13T04:27:32.014Z,3.75
2022-11-13T04:28:03.617Z,3.75
2022-11-13T04:28:35.157Z,3.79
2022-11-13T04:29:06.807Z,3.77
2022-11-13T04:29:38.378Z,3.75
2022-11-13T04:30:10.436Z,3.72
2022-11-13T04:30:41.973Z,3.74
2022-11-13T04:31:13.519Z,3.62
2022-11-13T04:31:45.061Z,3.65
2022-11-13T04:32:16.731Z,3.62
2022-11-13T04:32:48.288Z,3.55
2022-11-13T04:33:19.892Z,3.52
2022-11-13T04:33:51.414Z,3.40
2022-11-13T04:34:22.938Z,3.38
2022-11-13T04:34:54.519Z,3.34
2022-11-13T04:35:26.072Z,3.37
2022-11-13T04:35:57.609Z,3.38
2022-11-13T04:36:29.153Z,3.37
2022-11-13T04:37:00.785Z,3.33
2022-11-13T04:37:32.349Z,3.28
2022-11-13T04:38:03.949Z,3.26
2022-11-13T04:38:35.486Z,3.17
2022-11-13T04:39:07.366Z,3.19
2022-11-13T04:39:38.933Z,3.23
2022-11-13T04:40:11.008Z,3.21
2022-11-13T04:40:43.223Z,3.07
2022-11-13T04:41:33.425Z,3.10
2022-11-13T04:42:23.825Z,3.14
2022-11-13T04:42:55.383Z,3.19
2022-11-13T04:43:26.903Z,3.09
2022-11-13T04:43:58.465Z,3.09
2022-11-13T04:44:30.093Z,3.07
2022-11-13T04:45:01.674Z,3.09
2022-11-13T04:45:33.734Z,3.04
2022-11-13T04:46:05.386Z,2.97
2022-11-13T04:46:36.921Z,3.04
2022-11-13T04:47:08.651Z,2.93
2022-11-13T04:47:40.178Z,2.92
2022-11-13T04:48:11.776Z,2.97
2022-11-13T04:48:43.306Z,3.03
2022-11-13T04:49:14.824Z,3.03
2022-11-13T04:49:46.401Z,2.93
2022-11-13T04:50:18.069Z,2.79
2022-11-13T04:50:49.585Z,2.85
2022-11-13T04:51:22.046Z,2.79
2022-11-13T04:51:53.588Z,2.88
2022-11-13T04:52:25.213Z,2.89
2022-11-13T04:52:56.762Z,2.90
2022-11-13T04:53:28.313Z,2.95
2022-11-13T04:53:59.854Z,2.95
2022-11-13T04:54:31.389Z,2.89
2022-11-13T04:55:03.531Z,2.92
2022-11-13T04:55:35.063Z,2.78
2022-11-13T04:56:06.818Z,2.71
2022-11-13T04:56:38.355Z,2.76
2022-11-13T04:57:09.906Z,2.78
2022-11-13T04:57:41.671Z,2.75
2022-11-13T04:58:13.184Z,2.79
2022-11-13T04:58:44.787Z,2.78
2022-11-13T04:59:16.434Z,2.76
2022-11-13T04:59:47.951Z,2.85
2022-11-13T05:00:19.686Z,2.88
2022-11-13T05:00:51.210Z,2.88
2022-11-13T05:01:22.804Z,2.89
2022-11-13T05:01:55.799Z,2.96
2022-11-13T05:02:27.762Z,2.96
2022-11-13T05:02:59.313Z,2.96
2022-11-13T05:03:30.936Z,2.99
2022-11-13T05:04:02.874Z,2.90
2022-11-13T05:04:34.402Z,2.96
2022-11-13T05:05:06.168Z,3.03
2022-11-13T05:05:37.702Z,3.02
2022-11-13T05:06:10.678Z,3.06
2022-11-13T05:06:42.497Z,3.10
2022-11-13T05:07:14.279Z,3.00
2022-11-13T05:07:45.835Z,2.97
2022-11-13T05:08:17.351Z,3.02
2022-11-13T05:08:48.894Z,3.03
2022-11-13T05:09:20.451Z,3.04
2022-11-13T05:09:52.558Z,3.06
2022-11-13T05:10:24.091Z,3.02
2022-11-13T05:10:55.639Z,3.06
2022-11-13T05:11:27.175Z,3.07
2022-11-13T05:11:58.732Z,3.06
2022-11-13T05:12:30.244Z,3.06
2022-11-13T05:13:01.803Z,3.07
2022-11-13T05:13:35.506Z,3.11
2022-11-13T05:14:07.065Z,3.16
2022-11-13T05:14:39.945Z,3.13
2022-11-13T05:15:11.475Z,3.09
2022-11-13T05:15:43.029Z,3.02
2022-11-13T05:16:15.160Z,3.03
2022-11-13T05:16:46.730Z,3.06
2022-11-13T05:17:18.483Z,3.04
2022-11-13T05:17:50.038Z,3.10
2022-11-13T05:18:25.484Z,3.04
2022-11-13T05:19:00.414Z,3.07
2022-11-13T05:19:35.238Z,3.11
2022-11-13T05:20:07.474Z,3.09
2022-11-13T05:20:38.996Z,3.13
2022-11-13T05:21:10.758Z,3.14
2022-11-13T05:21:42.352Z,3.04
2022-11-13T05:22:13.871Z,3.02
2022-11-13T05:22:45.435Z,3.07
2022-11-13T05:23:16.952Z,3.10
2022-11-13T05:23:48.460Z,3.16
2022-11-13T05:24:19.994Z,3.21
2022-11-13T05:24:51.536Z,3.28
2022-11-13T05:25:23.176Z,3.31
2022-11-13T05:26:05.163Z,3.30
2022-11-13T05:26:37.959Z,3.30
2022-11-13T05:27:14.167Z,3.27
2022-11-13T05:27:48.496Z,3.21
2022-11-13T05:28:20.105Z,3.19
2022-11-13T05:28:51.850Z,3.26
2022-11-13T05:29:23.844Z,3.27
2022-11-13T05:29:55.363Z,3.30
2022-11-13T05:30:26.907Z,3.27
2022-11-13T05:31:06.734Z,3.34
2022-11-13T05:31:38.459Z,3.30
2022-11-13T05:32:10.019Z,3.31
2022-11-13T05:32:41.607Z,3.27
2022-11-13T05:33:13.137Z,3.28
2022-11-13T05:33:45.006Z,3.26
2022-11-13T05:34:16.570Z,3.28
2022-11-13T05:34:48.082Z,3.23
2022-11-13T05:35:19.665Z,3.21
2022-11-13T05:35:51.218Z,3.21
2022-11-13T05:36:23.463Z,3.23
2022-11-13T05:36:54.997Z,3.20
2022-11-13T05:37:28.737Z,3.26
2022-11-13T05:38:01.772Z,3.24
2022-11-13T05:38:33.789Z,3.21
2022-11-13T05:39:05.610Z,3.30
2022-11-13T05:39:37.126Z,3.27
2022-11-13T05:40:09.270Z,3.34
2022-11-13T05:40:40.791Z,3.35
2022-11-13T05:41:15.302Z,3.38
2022-11-13T05:41:46.854Z,3.40
2022-11-13T05:42:18.381Z,3.40
2022-11-13T05:42:49.897Z,3.33
2022-11-13T05:43:21.406Z,3.41
2022-11-13T05:43:58.986Z,3.40
2022-11-13T05:44:31.055Z,3.45
2022-11-13T05:45:02.644Z,3.50
2022-11-13T05:45:34.189Z,3.38
2022-11-13T05:46:08.288Z,3.44
2022-11-13T05:46:39.811Z,3.42
2022-11-13T05:47:11.323Z,3.44
2022-11-13T05:47:42.843Z,3.45
2022-11-13T05:48:14.359Z,3.42
2022-11-13T05:48:47.485Z,3.40
2022-11-13T05:49:19.041Z,3.42
2022-11-13T05:49:50.554Z,3.40
2022-11-13T05:50:22.489Z,3.42
2022-11-13T05:50:54.090Z,3.44
2022-11-13T05:51:28.405Z,3.48
2022-11-13T05:51:59.985Z,3.51
2022-11-13T05:52:31.505Z,3.50
2022-11-13T05:53:03.034Z,3.55
2022-11-13T05:53:35.770Z,3.48
2022-11-13T05:54:07.332Z,3.47
2022-11-13T05:54:38.938Z,3.47
2022-11-13T05:55:10.455Z,3.40
2022-11-13T05:55:41.963Z,3.31
2022-11-13T05:56:15.097Z,3.21
2022-11-13T05:56:46.614Z,3.23
2022-11-13T05:57:18.134Z,3.11
2022-11-13T05:57:49.676Z,3.26
2022-11-13T05:58:21.198Z,3.28
2022-11-13T05:58:54.322Z,3.27
2022-11-13T05:59:25.998Z,3.30
2022-11-13T05:59:57.525Z,3.23
2022-11-13T06:00:29.056Z,3.23
2022-11-13T06:01:06.470Z,3.26
2022-11-13T06:01:40.258Z,3.34
2022-11-13T06:02:11.915Z,3.37
2022-11-13T06:02:44.202Z,3.31
2022-11-13T06:03:15.732Z,3.37
2022-11-13T06:03:47.534Z,3.30
2022-11-13T06:04:19.104Z,3.37
2022-11-13T06:04:51.782Z,3.37
2022-11-13T06:05:26.998Z,3.41
2022-11-13T06:05:59.033Z,3.40
2022-11-13T06:06:31.498Z,3.33
2022-11-13T06:07:03.079Z,3.34
2022-11-13T06:07:34.621Z,3.38
2022-11-13T06:08:06.137Z,3.40
2022-11-13T06:08:37.926Z,3.42
2022-11-13T06:09:10.448Z,3.35
2022-11-13T06:09:42.018Z,3.37
2022-11-13T06:10:13.629Z,3.38
2022-11-13T06:10:45.143Z,3.40
2022-11-13T06:11:19.261Z,3.40
2022-11-13T06:11:50.869Z,3.34
2022-11-13T06:12:22.439Z,3.38
2022-11-13T06:12:55.168Z,3.41
2022-11-13T06:13:27.030Z,3.50
2022-11-13T06:13:59.644Z,3.55
2022-11-13T06:14:31.165Z,3.62
2022-11-13T06:15:02.812Z,3.57
2022-11-13T06:15:34.342Z,3.58
2022-11-13T06:16:08.546Z,3.65
2022-11-13T06:16:40.521Z,3.55
2022-11-13T06:17:12.046Z,3.50
2022-11-13T06:17:49.824Z,3.58
2022-11-13T06:18:26.753Z,3.64
2022-11-13T06:19:00.613Z,3.60
2022-11-13T06:19:32.186Z,3.61
2022-11-13T06:20:04.593Z,3.65
2022-11-13T06:20:36.728Z,3.70
2022-11-13T06:21:17.389Z,3.72
2022-11-13T06:21:48.945Z,3.77
2022-11-13T06:22:20.455Z,3.79
2022-11-13T06:22:51.989Z,3.83
2022-11-13T06:23:23.542Z,3.79
2022-11-13T06:23:55.081Z,3.86
2022-11-13T06:24:26.639Z,3.91
2022-11-13T06:24:58.162Z,3.93
2022-11-13T06:25:29.843Z,4.00
2022-11-13T06:26:07.914Z,4.02
2022-11-13T06:26:40.080Z,3.99
2022-11-13T06:27:11.598Z,3.96
2022-11-13T06:27:43.122Z,3.96
2022-11-13T06:28:14.649Z,3.89
2022-11-13T06:28:46.527Z,3.98
2022-11-13T06:29:18.084Z,4.06
2022-11-13T06:29:49.622Z,4.06
2022-11-13T06:30:21.290Z,4.13
2022-11-13T06:30:52.816Z,4.06
2022-11-13T06:31:30.046Z,4.02
2022-11-13T06:32:01.570Z,3.95
2022-11-13T06:32:33.134Z,3.92
2022-11-13T06:33:04.680Z,3.99
2022-11-13T06:33:37.742Z,3.98
2022-11-13T06:34:09.267Z,4.03
2022-11-13T06:34:40.822Z,3.99
2022-11-13T06:35:12.356Z,3.93
2022-11-13T06:35:43.872Z,3.95
2022-11-13T06:36:18.686Z,4.09
2022-11-13T06:36:50.215Z,4.12
2022-11-13T06:37:21.739Z,4.07
2022-11-13T06:37:55.634Z,4.12
2022-11-13T06:38:27.558Z,4.20
2022-11-13T06:39:00.231Z,4.24
2022-11-13T06:39:31.833Z,4.26
2022-11-13T06:40:03.559Z,4.29
2022-11-13T06:40:38.454Z,4.29
2022-11-13T06:41:12.944Z,4.26
2022-11-13T06:41:44.546Z,4.30
2022-11-13T06:42:16.119Z,4.28
2022-11-13T06:42:47.655Z,4.33
2022-11-13T06:43:19.201Z,4.33
2022-11-13T06:43:50.985Z,4.34
2022-11-13T06:44:22.513Z,4.30
2022-11-13T06:44:54.072Z,4.28
2022-11-13T06:45:25.673Z,4.28
2022-11-13T06:45:58.262Z,4.21
2022-11-13T06:46:31.040Z,4.29
2022-11-13T06:47:02.569Z,4.34
2022-11-13T06:47:34.111Z,4.39
2022-11-13T06:48:05.981Z,4.40
2022-11-13T06:48:37.735Z,4.43
2022-11-13T06:49:09.294Z,4.51
2022-11-13T06:49:40.814Z,4.41
2022-11-13T06:50:12.585Z,4.44
2022-11-13T06:50:48.293Z,4.47
2022-11-13T06:51:22.792Z,4.43
2022-11-13T06:51:54.395Z,4.56
2022-11-13T06:52:25.997Z,4.64
2022-11-13T06:52:57.568Z,4.67
2022-11-13T06:53:29.822Z,4.67
2022-11-13T06:54:01.439Z,4.67
2022-11-13T06:54:32.967Z,4.65
2022-11-13T06:55:04.869Z,4.60
2022-11-13T06:55:36.398Z,4.64
2022-11-13T06:56:08.776Z,4.62
2022-11-13T06:56:45.359Z,4.60
2022-11-13T06:57:16.911Z,4.64
2022-11-13T06:57:48.438Z,4.67
2022-11-13T06:58:20.013Z,4.64
2022-11-13T06:58:51.930Z,4.61
2022-11-13T06:59:23.505Z,4.68
2022-11-13T06:59:55.051Z,4.75
2022-11-13T07:00:26.597Z,4.71
2022-11-13T07:00:58.212Z,4.78
2022-11-13T07:01:29.867Z,4.77
2022-11-13T07:02:01.408Z,4.84
2022-11-13T07:02:32.932Z,4.81
2022-11-13T07:03:04.521Z,4.79
2022-11-13T07:03:36.310Z,4.87
2022-11-13T07:04:12.417Z,4.77
2022-11-13T07:04:43.934Z,4.82
2022-11-13T07:05:15.618Z,4.91
2022-11-13T07:05:47.608Z,4.91
2022-11-13T07:06:22.081Z,4.87
2022-11-13T07:06:53.822Z,4.93
2022-11-13T07:07:25.402Z,5.01
2022-11-13T07:07:56.937Z,5.09
2022-11-13T07:08:28.841Z,5.02
2022-11-13T07:09:00.686Z,4.98
2022-11-13T07:09:32.225Z,4.98
2022-11-13T07:10:03.951Z,5.02
2022-11-13T07:10:35.551Z,4.93
2022-11-13T07:11:09.514Z,5.05
2022-11-13T07:11:41.024Z,4.98
2022-11-13T07:12:12.546Z,4.99
2022-11-13T07:12:44.721Z,5.13
2022-11-13T07:13:16.245Z,5.13
2022-11-13T07:13:48.362Z,5.11
2022-11-13T07:14:19.903Z,5.02
2022-11-13T07:14:51.446Z,5.07
2022-11-13T07:15:22.978Z,5.11
2022-11-13T07:15:54.724Z,5.12